sensor_id;sensor_type;location;lat;lon;timestamp;P1;durP1;ratioP1;P2;durP2;ratioP2
75866;SDS011;64513;56.258;43.980;2023-03-01T00:04:43;6.60;;;0.90;;
75866;SDS011;64513;56.258;43.980;2023-03-01T00:09:54;5.75;;;0.82;;
75866;SDS011;64513;56.258;43.980;2023-03-01T00:12:38;5.92;;;1.05;;
75866;SDS011;64513;56.258;43.980;2023-03-01T00:15:03;4.17;;;0.78;;
75866;SDS011;64513;56.258;43.980;2023-03-01T00:17:27;3.50;;;0.80;;
75866;SDS011;64513;56.258;43.980;2023-03-01T00:19:51;7.95;;;0.80;;
75866;SDS011;64513;56.258;43.980;2023-03-01T00:22:15;6.28;;;0.72;;
75866;SDS011;64513;56.258;43.980;2023-03-01T00:24:40;5.67;;;0.75;;
75866;SDS011;64513;56.258;43.980;2023-03-01T00:27:04;4.72;;;0.70;;
75866;SDS011;64513;56.258;43.980;2023-03-01T00:29:28;5.95;;;0.60;;
75866;SDS011;64513;56.258;43.980;2023-03-01T00:34:49;3.27;;;0.65;;
75866;SDS011;64513;56.258;43.980;2023-03-01T00:37:33;4.22;;;0.75;;
75866;SDS011;64513;56.258;43.980;2023-03-01T00:39:57;5.28;;;0.68;;
75866;SDS011;64513;56.258;43.980;2023-03-01T00:42:26;5.50;;;0.55;;
75866;SDS011;64513;56.258;43.980;2023-03-01T00:44:50;3.10;;;0.60;;
75866;SDS011;64513;56.258;43.980;2023-03-01T00:47:16;5.37;;;0.62;;
75866;SDS011;64513;56.258;43.980;2023-03-01T00:50:00;3.47;;;0.75;;
75866;SDS011;64513;56.258;43.980;2023-03-01T00:52:44;3.90;;;0.50;;
75866;SDS011;64513;56.258;43.980;2023-03-01T00:55:09;5.70;;;1.05;;
75866;SDS011;64513;56.258;43.980;2023-03-01T00:57:34;3.17;;;0.50;;
75866;SDS011;64513;56.258;43.980;2023-03-01T01:00:00;4.58;;;0.40;;
75866;SDS011;64513;56.258;43.980;2023-03-01T01:10:45;6.47;;;0.80;;
75866;SDS011;64513;56.258;43.980;2023-03-01T01:13:13;5.00;;;0.68;;
75866;SDS011;64513;56.258;43.980;2023-03-01T01:15:39;5.15;;;0.40;;
75866;SDS011;64513;56.258;43.980;2023-03-01T01:20:50;4.35;;;0.40;;
75866;SDS011;64513;56.258;43.980;2023-03-01T01:23:35;2.40;;;0.50;;
75866;SDS011;64513;56.258;43.980;2023-03-01T01:28:48;3.67;;;0.62;;
75866;SDS011;64513;56.258;43.980;2023-03-01T01:31:12;4.08;;;0.53;;
75866;SDS011;64513;56.258;43.980;2023-03-01T01:33:37;2.85;;;0.50;;
75866;SDS011;64513;56.258;43.980;2023-03-01T01:36:01;5.08;;;0.70;;
75866;SDS011;64513;56.258;43.980;2023-03-01T01:38:25;3.67;;;0.57;;
75866;SDS011;64513;56.258;43.980;2023-03-01T01:40:50;4.85;;;0.55;;
75866;SDS011;64513;56.258;43.980;2023-03-01T01:52:13;4.80;;;0.60;;
75866;SDS011;64513;56.258;43.980;2023-03-01T02:00:30;3.20;;;0.70;;
75866;SDS011;64513;56.258;43.980;2023-03-01T02:02:57;3.25;;;0.50;;
75866;SDS011;64513;56.258;43.980;2023-03-01T02:11:35;3.70;;;0.50;;
75866;SDS011;64513;56.258;43.980;2023-03-01T02:14:20;2.75;;;0.40;;
75866;SDS011;64513;56.258;43.980;2023-03-01T02:16:44;6.47;;;0.60;;
75866;SDS011;64513;56.258;43.980;2023-03-01T02:19:10;4.53;;;0.60;;
75866;SDS011;64513;56.258;43.980;2023-03-01T02:27:30;4.50;;;0.50;;
75866;SDS011;64513;56.258;43.980;2023-03-01T02:29:54;3.60;;;0.53;;
75866;SDS011;64513;56.258;43.980;2023-03-01T02:32:18;6.28;;;0.70;;
75866;SDS011;64513;56.258;43.980;2023-03-01T02:34:45;6.05;;;0.85;;
75866;SDS011;64513;56.258;43.980;2023-03-01T02:37:11;3.98;;;0.78;;
75866;SDS011;64513;56.258;43.980;2023-03-01T02:39:39;3.45;;;0.50;;
75866;SDS011;64513;56.258;43.980;2023-03-01T02:42:26;7.20;;;0.80;;
75866;SDS011;64513;56.258;43.980;2023-03-01T02:44:52;5.00;;;0.60;;
75866;SDS011;64513;56.258;43.980;2023-03-01T02:47:16;5.37;;;0.60;;
75866;SDS011;64513;56.258;43.980;2023-03-01T02:49:40;6.05;;;0.88;;
75866;SDS011;64513;56.258;43.980;2023-03-01T02:57:37;4.70;;;0.65;;
75866;SDS011;64513;56.258;43.980;2023-03-01T03:02:50;7.20;;;0.90;;
75866;SDS011;64513;56.258;43.980;2023-03-01T03:05:18;5.25;;;0.70;;
75866;SDS011;64513;56.258;43.980;2023-03-01T03:08:03;4.58;;;0.50;;
75866;SDS011;64513;56.258;43.980;2023-03-01T03:13:12;4.10;;;0.60;;
75866;SDS011;64513;56.258;43.980;2023-03-01T03:15:38;3.77;;;1.07;;
75866;SDS011;64513;56.258;43.980;2023-03-01T03:18:04;3.15;;;0.60;;
75866;SDS011;64513;56.258;43.980;2023-03-01T03:20:29;4.03;;;0.65;;
75866;SDS011;64513;56.258;43.980;2023-03-01T03:22:54;3.22;;;0.47;;
75866;SDS011;64513;56.258;43.980;2023-03-01T03:25:19;4.83;;;0.88;;
75866;SDS011;64513;56.258;43.980;2023-03-01T03:27:45;10.48;;;1.20;;
75866;SDS011;64513;56.258;43.980;2023-03-01T03:30:11;4.55;;;0.60;;
75866;SDS011;64513;56.258;43.980;2023-03-01T03:32:37;5.37;;;0.90;;
75866;SDS011;64513;56.258;43.980;2023-03-01T03:35:03;3.58;;;0.60;;
75866;SDS011;64513;56.258;43.980;2023-03-01T03:37:29;4.15;;;1.00;;
75866;SDS011;64513;56.258;43.980;2023-03-01T03:40:13;5.67;;;0.75;;
75866;SDS011;64513;56.258;43.980;2023-03-01T03:42:38;5.45;;;1.00;;
75866;SDS011;64513;56.258;43.980;2023-03-01T03:45:02;7.58;;;1.00;;
75866;SDS011;64513;56.258;43.980;2023-03-01T03:47:26;6.00;;;1.05;;
75866;SDS011;64513;56.258;43.980;2023-03-01T03:49:51;6.58;;;1.20;;
75866;SDS011;64513;56.258;43.980;2023-03-01T03:52:15;3.90;;;0.85;;
75866;SDS011;64513;56.258;43.980;2023-03-01T03:54:39;6.70;;;1.20;;
75866;SDS011;64513;56.258;43.980;2023-03-01T03:57:04;4.55;;;1.00;;
75866;SDS011;64513;56.258;43.980;2023-03-01T03:59:28;6.00;;;1.20;;
75866;SDS011;64513;56.258;43.980;2023-03-01T04:01:52;6.12;;;1.30;;
75866;SDS011;64513;56.258;43.980;2023-03-01T04:04:16;6.00;;;1.20;;
75866;SDS011;64513;56.258;43.980;2023-03-01T04:06:40;7.10;;;1.25;;
75866;SDS011;64513;56.258;43.980;2023-03-01T04:09:04;5.12;;;1.10;;
75866;SDS011;64513;56.258;43.980;2023-03-01T04:11:29;5.92;;;1.27;;
75866;SDS011;64513;56.258;43.980;2023-03-01T04:13:55;6.28;;;1.17;;
75866;SDS011;64513;56.258;43.980;2023-03-01T04:16:20;3.52;;;1.05;;
75866;SDS011;64513;56.258;43.980;2023-03-01T04:18:45;5.35;;;1.05;;
75866;SDS011;64513;56.258;43.980;2023-03-01T04:21:09;6.78;;;1.30;;
75866;SDS011;64513;56.258;43.980;2023-03-01T04:23:33;10.03;;;1.45;;
75866;SDS011;64513;56.258;43.980;2023-03-01T04:25:58;7.90;;;1.22;;
75866;SDS011;64513;56.258;43.980;2023-03-01T04:30:50;9.55;;;1.40;;
75866;SDS011;64513;56.258;43.980;2023-03-01T04:33:15;7.97;;;1.70;;
75866;SDS011;64513;56.258;43.980;2023-03-01T04:35:39;7.60;;;1.52;;
75866;SDS011;64513;56.258;43.980;2023-03-01T04:38:03;8.50;;;1.67;;
75866;SDS011;64513;56.258;43.980;2023-03-01T04:40:28;6.40;;;1.45;;
75866;SDS011;64513;56.258;43.980;2023-03-01T04:42:52;7.05;;;1.40;;
75866;SDS011;64513;56.258;43.980;2023-03-01T04:45:17;7.37;;;1.27;;
75866;SDS011;64513;56.258;43.980;2023-03-01T04:47:41;6.17;;;1.35;;
75866;SDS011;64513;56.258;43.980;2023-03-01T04:50:07;5.42;;;1.47;;
75866;SDS011;64513;56.258;43.980;2023-03-01T04:52:32;5.83;;;1.40;;
75866;SDS011;64513;56.258;43.980;2023-03-01T04:54:56;6.30;;;1.30;;
75866;SDS011;64513;56.258;43.980;2023-03-01T04:57:20;7.53;;;1.35;;
75866;SDS011;64513;56.258;43.980;2023-03-01T04:59:45;4.95;;;1.30;;
75866;SDS011;64513;56.258;43.980;2023-03-01T05:02:09;5.45;;;1.00;;
75866;SDS011;64513;56.258;43.980;2023-03-01T05:04:33;5.95;;;1.30;;
75866;SDS011;64513;56.258;43.980;2023-03-01T05:06:57;5.40;;;0.80;;
75866;SDS011;64513;56.258;43.980;2023-03-01T05:09:21;5.17;;;1.17;;
75866;SDS011;64513;56.258;43.980;2023-03-01T05:11:45;7.83;;;1.60;;
75866;SDS011;64513;56.258;43.980;2023-03-01T05:14:11;5.90;;;1.40;;
75866;SDS011;64513;56.258;43.980;2023-03-01T05:16:36;6.78;;;1.85;;
75866;SDS011;64513;56.258;43.980;2023-03-01T05:19:00;6.35;;;1.10;;
75866;SDS011;64513;56.258;43.980;2023-03-01T05:21:45;4.65;;;1.30;;
75866;SDS011;64513;56.258;43.980;2023-03-01T05:26:56;5.60;;;1.30;;
75866;SDS011;64513;56.258;43.980;2023-03-01T05:29:21;6.42;;;1.17;;
75866;SDS011;64513;56.258;43.980;2023-03-01T05:31:47;6.10;;;1.30;;
75866;SDS011;64513;56.258;43.980;2023-03-01T05:34:11;5.53;;;1.05;;
75866;SDS011;64513;56.258;43.980;2023-03-01T05:36:36;5.47;;;1.12;;
75866;SDS011;64513;56.258;43.980;2023-03-01T05:39:03;5.35;;;1.32;;
75866;SDS011;64513;56.258;43.980;2023-03-01T05:41:28;5.90;;;1.17;;
75866;SDS011;64513;56.258;43.980;2023-03-01T05:43:53;8.80;;;1.10;;
75866;SDS011;64513;56.258;43.980;2023-03-01T05:46:18;8.18;;;1.77;;
75866;SDS011;64513;56.258;43.980;2023-03-01T05:48:45;6.95;;;1.22;;
75866;SDS011;64513;56.258;43.980;2023-03-01T05:51:11;7.08;;;1.22;;
75866;SDS011;64513;56.258;43.980;2023-03-01T05:53:35;4.80;;;1.17;;
75866;SDS011;64513;56.258;43.980;2023-03-01T05:56:02;6.30;;;1.20;;
75866;SDS011;64513;56.258;43.980;2023-03-01T05:58:45;13.65;;;1.65;;
75866;SDS011;64513;56.258;43.980;2023-03-01T06:01:12;7.97;;;1.20;;
75866;SDS011;64513;56.258;43.980;2023-03-01T06:03:36;6.72;;;1.20;;
75866;SDS011;64513;56.258;43.980;2023-03-01T06:06:00;5.72;;;1.12;;
75866;SDS011;64513;56.258;43.980;2023-03-01T06:08:24;6.70;;;1.30;;
75866;SDS011;64513;56.258;43.980;2023-03-01T06:10:49;5.70;;;1.27;;
75866;SDS011;64513;56.258;43.980;2023-03-01T06:13:13;8.93;;;1.60;;
75866;SDS011;64513;56.258;43.980;2023-03-01T06:15:37;6.30;;;1.50;;
75866;SDS011;64513;56.258;43.980;2023-03-01T06:18:01;10.55;;;1.67;;
75866;SDS011;64513;56.258;43.980;2023-03-01T06:20:26;6.90;;;1.20;;
75866;SDS011;64513;56.258;43.980;2023-03-01T06:22:51;6.28;;;1.35;;
75866;SDS011;64513;56.258;43.980;2023-03-01T06:27:43;8.13;;;1.40;;
75866;SDS011;64513;56.258;43.980;2023-03-01T06:30:09;6.30;;;1.27;;
75866;SDS011;64513;56.258;43.980;2023-03-01T06:32:35;6.90;;;1.20;;
75866;SDS011;64513;56.258;43.980;2023-03-01T06:35:20;8.65;;;1.77;;
75866;SDS011;64513;56.258;43.980;2023-03-01T06:37:45;5.03;;;1.25;;
75866;SDS011;64513;56.258;43.980;2023-03-01T06:40:10;5.50;;;1.50;;
75866;SDS011;64513;56.258;43.980;2023-03-01T06:42:35;5.03;;;1.20;;
75866;SDS011;64513;56.258;43.980;2023-03-01T06:45:01;4.70;;;1.00;;
75866;SDS011;64513;56.258;43.980;2023-03-01T06:47:26;7.45;;;1.40;;
75866;SDS011;64513;56.258;43.980;2023-03-01T06:49:51;4.42;;;1.30;;
75866;SDS011;64513;56.258;43.980;2023-03-01T06:52:15;6.20;;;1.85;;
75866;SDS011;64513;56.258;43.980;2023-03-01T06:54:39;4.85;;;1.37;;
75866;SDS011;64513;56.258;43.980;2023-03-01T06:57:04;5.80;;;1.30;;
75866;SDS011;64513;56.258;43.980;2023-03-01T07:01:57;9.20;;;1.65;;
75866;SDS011;64513;56.258;43.980;2023-03-01T07:04:21;5.72;;;1.32;;
75866;SDS011;64513;56.258;43.980;2023-03-01T07:06:45;4.87;;;1.30;;
75866;SDS011;64513;56.258;43.980;2023-03-01T07:09:11;5.75;;;1.20;;
75866;SDS011;64513;56.258;43.980;2023-03-01T07:11:39;7.33;;;1.87;;
75866;SDS011;64513;56.258;43.980;2023-03-01T07:14:03;6.62;;;1.10;;
75866;SDS011;64513;56.258;43.980;2023-03-01T07:19:16;5.08;;;1.27;;
75866;SDS011;64513;56.258;43.980;2023-03-01T07:21:40;5.70;;;1.10;;
75866;SDS011;64513;56.258;43.980;2023-03-01T07:24:06;8.50;;;1.20;;
75866;SDS011;64513;56.258;43.980;2023-03-01T07:26:31;4.83;;;1.40;;
75866;SDS011;64513;56.258;43.980;2023-03-01T07:28:58;5.92;;;1.52;;
75866;SDS011;64513;56.258;43.980;2023-03-01T07:31:41;7.40;;;1.40;;
75866;SDS011;64513;56.258;43.980;2023-03-01T07:34:05;4.70;;;1.60;;
75866;SDS011;64513;56.258;43.980;2023-03-01T07:36:30;6.17;;;1.30;;
75866;SDS011;64513;56.258;43.980;2023-03-01T07:38:54;5.10;;;1.40;;
75866;SDS011;64513;56.258;43.980;2023-03-01T07:41:19;4.25;;;1.10;;
75866;SDS011;64513;56.258;43.980;2023-03-01T07:43:43;4.95;;;1.35;;
75866;SDS011;64513;56.258;43.980;2023-03-01T07:46:07;6.80;;;1.30;;
75866;SDS011;64513;56.258;43.980;2023-03-01T07:48:32;6.08;;;1.20;;
75866;SDS011;64513;56.258;43.980;2023-03-01T07:53:41;5.60;;;1.72;;
75866;SDS011;64513;56.258;43.980;2023-03-01T07:58:49;5.90;;;1.60;;
75866;SDS011;64513;56.258;43.980;2023-03-01T08:01:15;5.53;;;1.30;;
75866;SDS011;64513;56.258;43.980;2023-03-01T08:03:41;4.95;;;1.30;;
75866;SDS011;64513;56.258;43.980;2023-03-01T08:06:06;4.62;;;1.10;;
75866;SDS011;64513;56.258;43.980;2023-03-01T08:08:31;5.95;;;1.12;;
75866;SDS011;64513;56.258;43.980;2023-03-01T08:10:56;4.85;;;0.75;;
75866;SDS011;64513;56.258;43.980;2023-03-01T08:13:22;5.67;;;1.00;;
75866;SDS011;64513;56.258;43.980;2023-03-01T08:15:46;4.15;;;0.90;;
75866;SDS011;64513;56.258;43.980;2023-03-01T08:18:10;3.42;;;0.82;;
75866;SDS011;64513;56.258;43.980;2023-03-01T08:20:34;5.95;;;1.07;;
75866;SDS011;64513;56.258;43.980;2023-03-01T08:22:58;4.75;;;0.80;;
75866;SDS011;64513;56.258;43.980;2023-03-01T08:25:22;5.08;;;1.00;;
75866;SDS011;64513;56.258;43.980;2023-03-01T08:27:46;9.35;;;0.90;;
75866;SDS011;64513;56.258;43.980;2023-03-01T08:30:11;5.60;;;1.00;;
75866;SDS011;64513;56.258;43.980;2023-03-01T08:35:02;5.30;;;1.10;;
75866;SDS011;64513;56.258;43.980;2023-03-01T08:37:26;4.60;;;1.00;;
75866;SDS011;64513;56.258;43.980;2023-03-01T08:39:52;6.85;;;1.42;;
75866;SDS011;64513;56.258;43.980;2023-03-01T08:42:16;4.45;;;1.30;;
75866;SDS011;64513;56.258;43.980;2023-03-01T08:44:40;6.30;;;1.07;;
75866;SDS011;64513;56.258;43.980;2023-03-01T08:47:04;5.70;;;1.40;;
75866;SDS011;64513;56.258;43.980;2023-03-01T08:49:29;5.35;;;1.07;;
75866;SDS011;64513;56.258;43.980;2023-03-01T08:51:53;5.97;;;0.88;;
75866;SDS011;64513;56.258;43.980;2023-03-01T08:54:18;4.60;;;0.68;;
75866;SDS011;64513;56.258;43.980;2023-03-01T08:56:44;5.12;;;0.80;;
75866;SDS011;64513;56.258;43.980;2023-03-01T08:59:09;3.00;;;0.60;;
75866;SDS011;64513;56.258;43.980;2023-03-01T09:01:34;4.92;;;1.32;;
75866;SDS011;64513;56.258;43.980;2023-03-01T09:03:58;8.10;;;1.05;;
75866;SDS011;64513;56.258;43.980;2023-03-01T09:06:22;3.72;;;0.93;;
75866;SDS011;64513;56.258;43.980;2023-03-01T09:08:47;6.95;;;1.40;;
75866;SDS011;64513;56.258;43.980;2023-03-01T09:11:13;4.25;;;0.90;;
75866;SDS011;64513;56.258;43.980;2023-03-01T09:13:39;2.92;;;0.70;;
75866;SDS011;64513;56.258;43.980;2023-03-01T09:16:04;4.90;;;1.05;;
75866;SDS011;64513;56.258;43.980;2023-03-01T09:18:29;6.53;;;1.10;;
75866;SDS011;64513;56.258;43.980;2023-03-01T09:23:40;4.40;;;1.00;;
75866;SDS011;64513;56.258;43.980;2023-03-01T09:26:07;6.47;;;1.00;;
75866;SDS011;64513;56.258;43.980;2023-03-01T09:28:32;4.42;;;0.90;;
75866;SDS011;64513;56.258;43.980;2023-03-01T09:33:42;5.20;;;0.90;;
75866;SDS011;64513;56.258;43.980;2023-03-01T09:36:11;4.60;;;0.80;;
75866;SDS011;64513;56.258;43.980;2023-03-01T09:38:35;5.87;;;0.80;;
75866;SDS011;64513;56.258;43.980;2023-03-01T09:40:59;4.40;;;0.90;;
75866;SDS011;64513;56.258;43.980;2023-03-01T09:46:31;3.55;;;0.82;;
75866;SDS011;64513;56.258;43.980;2023-03-01T09:49:00;5.50;;;1.00;;
75866;SDS011;64513;56.258;43.980;2023-03-01T09:51:44;4.15;;;0.78;;
75866;SDS011;64513;56.258;43.980;2023-03-01T09:54:28;5.20;;;0.93;;
75866;SDS011;64513;56.258;43.980;2023-03-01T10:03:04;8.00;;;1.20;;
75866;SDS011;64513;56.258;43.980;2023-03-01T10:11:37;6.03;;;0.93;;
75866;SDS011;64513;56.258;43.980;2023-03-01T10:14:05;5.53;;;0.80;;
75866;SDS011;64513;56.258;43.980;2023-03-01T10:25:08;4.50;;;0.70;;
75866;SDS011;64513;56.258;43.980;2023-03-01T10:27:37;4.60;;;0.98;;
75866;SDS011;64513;56.258;43.980;2023-03-01T10:32:48;4.50;;;0.80;;
75866;SDS011;64513;56.258;43.980;2023-03-01T10:46:34;5.72;;;1.12;;
75866;SDS011;64513;56.258;43.980;2023-03-01T10:49:34;5.58;;;0.80;;
75866;SDS011;64513;56.258;43.980;2023-03-01T10:54:52;3.50;;;0.70;;
75866;SDS011;64513;56.258;43.980;2023-03-01T11:00:36;3.33;;;0.57;;
75866;SDS011;64513;56.258;43.980;2023-03-01T11:02:50;5.58;;;0.93;;
75866;SDS011;64513;56.258;43.980;2023-03-01T11:05:34;4.67;;;0.72;;
75866;SDS011;64513;56.258;43.980;2023-03-01T11:07:59;7.65;;;0.93;;
75866;SDS011;64513;56.258;43.980;2023-03-01T11:18:41;6.58;;;1.45;;
75866;SDS011;64513;56.258;43.980;2023-03-01T11:21:05;4.45;;;1.00;;
75866;SDS011;64513;56.258;43.980;2023-03-01T11:23:32;4.10;;;0.90;;
75866;SDS011;64513;56.258;43.980;2023-03-01T11:25:59;4.47;;;0.90;;
75866;SDS011;64513;56.258;43.980;2023-03-01T11:28:44;4.72;;;0.68;;
75866;SDS011;64513;56.258;43.980;2023-03-01T11:31:11;4.97;;;0.60;;
75866;SDS011;64513;56.258;43.980;2023-03-01T11:33:40;4.45;;;0.80;;
75866;SDS011;64513;56.258;43.980;2023-03-01T11:45:18;6.25;;;0.90;;
75866;SDS011;64513;56.258;43.980;2023-03-01T12:02:15;2.80;;;0.62;;
75866;SDS011;64513;56.258;43.980;2023-03-01T12:10:49;5.97;;;0.93;;
75866;SDS011;64513;56.258;43.980;2023-03-01T12:51:59;5.03;;;1.00;;
75866;SDS011;64513;56.258;43.980;2023-03-01T12:54:27;3.60;;;0.93;;
75866;SDS011;64513;56.258;43.980;2023-03-01T12:56:54;4.67;;;0.72;;
75866;SDS011;64513;56.258;43.980;2023-03-01T13:13:52;4.05;;;0.72;;
75866;SDS011;64513;56.258;43.980;2023-03-01T13:19:23;5.20;;;0.70;;
75866;SDS011;64513;56.258;43.980;2023-03-01T13:27:40;4.17;;;0.98;;
75866;SDS011;64513;56.258;43.980;2023-03-01T13:33:08;8.80;;;1.00;;
75866;SDS011;64513;56.258;43.980;2023-03-01T13:36:01;5.67;;;1.10;;
75866;SDS011;64513;56.258;43.980;2023-03-01T13:52:56;6.72;;;1.20;;
75866;SDS011;64513;56.258;43.980;2023-03-01T13:58:28;5.70;;;1.40;;
75866;SDS011;64513;56.258;43.980;2023-03-01T14:03:59;6.80;;;1.27;;
75866;SDS011;64513;56.258;43.980;2023-03-01T14:21:09;4.78;;;1.20;;
75866;SDS011;64513;56.258;43.980;2023-03-01T14:23:35;6.03;;;1.30;;
75866;SDS011;64513;56.258;43.980;2023-03-01T14:26:02;6.30;;;1.10;;
75866;SDS011;64513;56.258;43.980;2023-03-01T14:28:28;7.58;;;1.42;;
75866;SDS011;64513;56.258;43.980;2023-03-01T14:30:57;5.83;;;1.50;;
75866;SDS011;64513;56.258;43.980;2023-03-01T14:36:10;8.13;;;1.90;;
75866;SDS011;64513;56.258;43.980;2023-03-01T14:38:36;7.40;;;1.40;;
75866;SDS011;64513;56.258;43.980;2023-03-01T14:43:49;6.28;;;1.82;;
75866;SDS011;64513;56.258;43.980;2023-03-01T14:51:51;7.50;;;1.40;;
75866;SDS011;64513;56.258;43.980;2023-03-01T14:54:37;4.47;;;1.10;;
75866;SDS011;64513;56.258;43.980;2023-03-01T14:57:02;6.15;;;1.50;;
75866;SDS011;64513;56.258;43.980;2023-03-01T14:59:27;5.22;;;1.15;;
75866;SDS011;64513;56.258;43.980;2023-03-01T15:01:53;3.62;;;1.37;;
75866;SDS011;64513;56.258;43.980;2023-03-01T15:04:19;5.10;;;1.20;;
75866;SDS011;64513;56.258;43.980;2023-03-01T15:06:47;5.03;;;1.30;;
75866;SDS011;64513;56.258;43.980;2023-03-01T15:09:14;6.50;;;1.42;;
75866;SDS011;64513;56.258;43.980;2023-03-01T15:11:40;5.15;;;1.77;;
75866;SDS011;64513;56.258;43.980;2023-03-01T15:14:24;4.80;;;1.30;;
75866;SDS011;64513;56.258;43.980;2023-03-01T15:16:50;5.30;;;1.60;;
75866;SDS011;64513;56.258;43.980;2023-03-01T15:19:15;6.08;;;1.37;;
75866;SDS011;64513;56.258;43.980;2023-03-01T15:21:42;5.35;;;1.70;;
75866;SDS011;64513;56.258;43.980;2023-03-01T15:29:40;6.30;;;1.60;;
75866;SDS011;64513;56.258;43.980;2023-03-01T15:41:04;7.12;;;2.02;;
75866;SDS011;64513;56.258;43.980;2023-03-01T15:51:13;7.67;;;2.02;;
75866;SDS011;64513;56.258;43.980;2023-03-01T15:53:37;6.92;;;1.72;;
75866;SDS011;64513;56.258;43.980;2023-03-01T15:56:02;6.40;;;1.80;;
75866;SDS011;64513;56.258;43.980;2023-03-01T15:58:28;5.40;;;1.50;;
75866;SDS011;64513;56.258;43.980;2023-03-01T16:00:52;6.67;;;1.80;;
75866;SDS011;64513;56.258;43.980;2023-03-01T16:03:17;10.23;;;2.05;;
75866;SDS011;64513;56.258;43.980;2023-03-01T16:05:42;7.83;;;2.20;;
75866;SDS011;64513;56.258;43.980;2023-03-01T16:08:07;5.80;;;1.70;;
75866;SDS011;64513;56.258;43.980;2023-03-01T16:10:32;8.68;;;2.35;;
75866;SDS011;64513;56.258;43.980;2023-03-01T16:12:57;10.00;;;2.00;;
75866;SDS011;64513;56.258;43.980;2023-03-01T16:15:22;7.92;;;1.55;;
75866;SDS011;64513;56.258;43.980;2023-03-01T16:17:49;7.70;;;2.10;;
75866;SDS011;64513;56.258;43.980;2023-03-01T16:20:14;5.05;;;1.65;;
75866;SDS011;64513;56.258;43.980;2023-03-01T16:22:39;7.87;;;1.72;;
75866;SDS011;64513;56.258;43.980;2023-03-01T16:25:04;7.40;;;2.35;;
75866;SDS011;64513;56.258;43.980;2023-03-01T16:27:29;6.70;;;1.50;;
75866;SDS011;64513;56.258;43.980;2023-03-01T16:29:55;6.60;;;1.80;;
75866;SDS011;64513;56.258;43.980;2023-03-01T16:32:20;7.10;;;1.70;;
75866;SDS011;64513;56.258;43.980;2023-03-01T16:34:46;6.17;;;1.65;;
75866;SDS011;64513;56.258;43.980;2023-03-01T16:37:11;6.17;;;1.40;;
75866;SDS011;64513;56.258;43.980;2023-03-01T16:39:37;6.62;;;1.52;;
75866;SDS011;64513;56.258;43.980;2023-03-01T16:42:02;5.20;;;1.50;;
75866;SDS011;64513;56.258;43.980;2023-03-01T16:44:27;5.00;;;1.50;;
75866;SDS011;64513;56.258;43.980;2023-03-01T16:46:53;7.10;;;1.67;;
75866;SDS011;64513;56.258;43.980;2023-03-01T16:49:18;7.90;;;1.82;;
75866;SDS011;64513;56.258;43.980;2023-03-01T16:51:44;6.20;;;1.45;;
75866;SDS011;64513;56.258;43.980;2023-03-01T16:54:14;3.98;;;1.40;;
75866;SDS011;64513;56.258;43.980;2023-03-01T16:56:38;6.70;;;1.60;;
75866;SDS011;64513;56.258;43.980;2023-03-01T16:59:03;5.25;;;1.20;;
75866;SDS011;64513;56.258;43.980;2023-03-01T17:01:30;7.45;;;2.40;;
75866;SDS011;64513;56.258;43.980;2023-03-01T17:03:55;6.83;;;1.55;;
75866;SDS011;64513;56.258;43.980;2023-03-01T17:06:21;6.10;;;1.60;;
75866;SDS011;64513;56.258;43.980;2023-03-01T17:08:47;4.60;;;1.60;;
75866;SDS011;64513;56.258;43.980;2023-03-01T17:11:13;7.55;;;1.60;;
75866;SDS011;64513;56.258;43.980;2023-03-01T17:13:58;6.65;;;1.40;;
75866;SDS011;64513;56.258;43.980;2023-03-01T17:16:24;5.20;;;1.30;;
75866;SDS011;64513;56.258;43.980;2023-03-01T17:18:49;4.42;;;1.27;;
75866;SDS011;64513;56.258;43.980;2023-03-01T17:21:16;6.20;;;1.20;;
75866;SDS011;64513;56.258;43.980;2023-03-01T17:23:45;5.65;;;1.30;;
75866;SDS011;64513;56.258;43.980;2023-03-01T17:26:11;5.58;;;1.40;;
75866;SDS011;64513;56.258;43.980;2023-03-01T17:28:36;7.03;;;1.52;;
75866;SDS011;64513;56.258;43.980;2023-03-01T17:31:04;8.58;;;1.50;;
75866;SDS011;64513;56.258;43.980;2023-03-01T17:33:29;5.75;;;1.15;;
75866;SDS011;64513;56.258;43.980;2023-03-01T17:35:54;10.32;;;1.60;;
75866;SDS011;64513;56.258;43.980;2023-03-01T17:38:21;5.00;;;1.20;;
75866;SDS011;64513;56.258;43.980;2023-03-01T17:40:46;6.37;;;1.15;;
75866;SDS011;64513;56.258;43.980;2023-03-01T17:43:11;6.30;;;1.00;;
75866;SDS011;64513;56.258;43.980;2023-03-01T17:45:36;5.00;;;0.80;;
75866;SDS011;64513;56.258;43.980;2023-03-01T17:48:03;4.03;;;0.88;;
75866;SDS011;64513;56.258;43.980;2023-03-01T17:50:29;3.85;;;0.90;;
75866;SDS011;64513;56.258;43.980;2023-03-01T17:52:53;3.37;;;0.60;;
75866;SDS011;64513;56.258;43.980;2023-03-01T17:55:18;3.50;;;0.75;;
75866;SDS011;64513;56.258;43.980;2023-03-01T17:57:43;7.45;;;0.75;;
75866;SDS011;64513;56.258;43.980;2023-03-01T18:00:10;5.22;;;0.80;;
75866;SDS011;64513;56.258;43.980;2023-03-01T18:02:37;5.55;;;0.80;;
75866;SDS011;64513;56.258;43.980;2023-03-01T18:05:02;3.50;;;0.70;;
75866;SDS011;64513;56.258;43.980;2023-03-01T18:09:54;3.35;;;0.70;;
75866;SDS011;64513;56.258;43.980;2023-03-01T18:12:19;3.77;;;0.80;;
75866;SDS011;64513;56.258;43.980;2023-03-01T18:14:43;4.55;;;0.50;;
75866;SDS011;64513;56.258;43.980;2023-03-01T18:17:09;4.20;;;0.68;;
75866;SDS011;64513;56.258;43.980;2023-03-01T18:19:34;3.95;;;0.57;;
75866;SDS011;64513;56.258;43.980;2023-03-01T18:22:00;4.80;;;0.50;;
75866;SDS011;64513;56.258;43.980;2023-03-01T18:24:24;4.22;;;0.50;;
75866;SDS011;64513;56.258;43.980;2023-03-01T18:26:49;5.53;;;0.75;;
75866;SDS011;64513;56.258;43.980;2023-03-01T18:29:13;3.58;;;0.60;;
75866;SDS011;64513;56.258;43.980;2023-03-01T18:31:39;5.20;;;0.70;;
75866;SDS011;64513;56.258;43.980;2023-03-01T18:34:04;5.80;;;1.00;;
75866;SDS011;64513;56.258;43.980;2023-03-01T18:38:56;3.50;;;0.70;;
75866;SDS011;64513;56.258;43.980;2023-03-01T18:41:22;7.25;;;1.20;;
75866;SDS011;64513;56.258;43.980;2023-03-01T18:43:48;4.03;;;0.75;;
75866;SDS011;64513;56.258;43.980;2023-03-01T18:46:14;3.00;;;0.60;;
75866;SDS011;64513;56.258;43.980;2023-03-01T18:48:39;3.65;;;0.65;;
75866;SDS011;64513;56.258;43.980;2023-03-01T18:53:49;3.75;;;0.68;;
75866;SDS011;64513;56.258;43.980;2023-03-01T18:56:13;4.33;;;0.60;;
75866;SDS011;64513;56.258;43.980;2023-03-01T18:58:38;3.00;;;0.60;;
75866;SDS011;64513;56.258;43.980;2023-03-01T19:01:04;4.28;;;0.40;;
75866;SDS011;64513;56.258;43.980;2023-03-01T19:03:30;3.95;;;0.55;;
75866;SDS011;64513;56.258;43.980;2023-03-01T19:05:54;3.67;;;0.60;;
75866;SDS011;64513;56.258;43.980;2023-03-01T19:08:40;3.30;;;0.60;;
75866;SDS011;64513;56.258;43.980;2023-03-01T19:11:05;4.60;;;0.35;;
75866;SDS011;64513;56.258;43.980;2023-03-01T19:13:30;3.85;;;0.62;;
75866;SDS011;64513;56.258;43.980;2023-03-01T19:18:44;4.20;;;0.60;;
75866;SDS011;64513;56.258;43.980;2023-03-01T19:21:30;2.40;;;0.50;;
75866;SDS011;64513;56.258;43.980;2023-03-01T19:23:55;4.95;;;0.40;;
75866;SDS011;64513;56.258;43.980;2023-03-01T19:26:22;4.17;;;0.60;;
75866;SDS011;64513;56.258;43.980;2023-03-01T19:28:48;2.92;;;0.42;;
75866;SDS011;64513;56.258;43.980;2023-03-01T19:31:13;3.80;;;0.50;;
75866;SDS011;64513;56.258;43.980;2023-03-01T19:33:40;4.40;;;0.70;;
75866;SDS011;64513;56.258;43.980;2023-03-01T19:36:05;5.50;;;0.40;;
75866;SDS011;64513;56.258;43.980;2023-03-01T19:38:31;3.05;;;0.50;;
75866;SDS011;64513;56.258;43.980;2023-03-01T19:40:55;4.58;;;0.90;;
75866;SDS011;64513;56.258;43.980;2023-03-01T19:43:20;3.05;;;0.55;;